Terminal Aerodrome Forecast
Issued by NWS

Home | Current Version | Previous Version | Text Only | Print | Product List | Glossary On
Versions: 1 2 3 4 5 6 7 8 9 10 11 12 13 14 15 16 17 18 19 20 21
000
FTUS43 KEAX 181000 AAC
TAFMKC
TAF AMD
KMKC 181016Z 1810/1906 06005KT 2SM -SN OVC020
      TEMPO 1811/1812 1SM -SN OVC005
     FM181200 08006KT 3SM -SN OVC007
     FM181600 08007KT 5SM BR OVC010=

USA.gov is the U.S. government's official web portal to all federal, state and local government web resources and services.